Terminal Aerodrome Forecast
Issued by NWS Portland, OR

Home | Current Version | Previous Version | Text Only | Print | Product List | Glossary On
Versions: 1 2 3 4 5 6 7 8 9 10 11 12 13 14 15 16 17 18 19 20 21 22 23 24 25 26 27 28
500
FTUS46 KPQR 150547
TAFTTD
TAF
KTTD 150547Z 1506/1606 09015G25KT P6SM BKN200
     FM151700 09010KT P6SM -RA SCT025 OVC050
     FM152200 29006KT P6SM -SHRA BKN025
     FM160200 28005KT P6SM VCSH SCT025 BKN035=

USA.gov is the U.S. government's official web portal to all federal, state and local government web resources and services.